sensor_id;sensor_type;location;lat;lon;timestamp;P1;durP1;ratioP1;P2;durP2;ratioP2
48795;SDS011;34607;48.520;-1.330;2023-05-07T07:21:49;8.23;;;7.18;;
48795;SDS011;34607;48.520;-1.330;2023-05-07T07:24:17;10.70;;;7.50;;
48795;SDS011;34607;48.520;-1.330;2023-05-07T07:26:48;7.40;;;6.70;;
48795;SDS011;34607;48.520;-1.330;2023-05-07T07:29:16;7.32;;;5.97;;
48795;SDS011;34607;48.520;-1.330;2023-05-07T07:31:47;7.05;;;5.50;;
48795;SDS011;34607;48.520;-1.330;2023-05-07T07:34:15;8.27;;;4.97;;
48795;SDS011;34607;48.520;-1.330;2023-05-07T07:36:42;7.43;;;5.00;;
48795;SDS011;34607;48.520;-1.330;2023-05-07T07:39:10;5.90;;;5.00;;
48795;SDS011;34607;48.520;-1.330;2023-05-07T07:41:38;7.68;;;4.82;;
48795;SDS011;34607;48.520;-1.330;2023-05-07T07:44:05;13.65;;;5.20;;
48795;SDS011;34607;48.520;-1.330;2023-05-07T07:46:36;14.50;;;5.68;;
48795;SDS011;34607;48.520;-1.330;2023-05-07T07:49:03;24.35;;;5.43;;
48795;SDS011;34607;48.520;-1.330;2023-05-07T07:51:31;8.00;;;5.78;;
48795;SDS011;34607;48.520;-1.330;2023-05-07T07:53:59;9.57;;;6.10;;
48795;SDS011;34607;48.520;-1.330;2023-05-07T07:56:30;14.70;;;7.25;;
48795;SDS011;34607;48.520;-1.330;2023-05-07T07:58:58;15.27;;;8.55;;
48795;SDS011;34607;48.520;-1.330;2023-05-07T08:01:26;24.90;;;8.52;;
48795;SDS011;34607;48.520;-1.330;2023-05-07T08:03:53;23.52;;;8.68;;
48795;SDS011;34607;48.520;-1.330;2023-05-07T08:06:20;29.67;;;10.25;;
48795;SDS011;34607;48.520;-1.330;2023-05-07T08:08:48;17.35;;;10.57;;
48795;SDS011;34607;48.520;-1.330;2023-05-07T08:11:16;16.45;;;10.60;;
48795;SDS011;34607;48.520;-1.330;2023-05-07T08:13:45;13.93;;;11.00;;
48795;SDS011;34607;48.520;-1.330;2023-05-07T08:16:13;16.08;;;11.43;;
48795;SDS011;34607;48.520;-1.330;2023-05-07T08:18:41;14.65;;;11.13;;
48795;SDS011;34607;48.520;-1.330;2023-05-07T08:21:09;15.93;;;12.10;;
48795;SDS011;34607;48.520;-1.330;2023-05-07T08:23:36;13.57;;;10.65;;
48795;SDS011;34607;48.520;-1.330;2023-05-07T08:26:04;13.48;;;10.60;;
48795;SDS011;34607;48.520;-1.330;2023-05-07T08:28:31;14.23;;;10.95;;
48795;SDS011;34607;48.520;-1.330;2023-05-07T08:30:59;15.68;;;12.00;;
48795;SDS011;34607;48.520;-1.330;2023-05-07T08:33:30;15.95;;;12.05;;
48795;SDS011;34607;48.520;-1.330;2023-05-07T08:35:57;14.77;;;12.63;;
48795;SDS011;34607;48.520;-1.330;2023-05-07T08:38:25;18.63;;;14.13;;
48795;SDS011;34607;48.520;-1.330;2023-05-07T08:40:52;24.58;;;17.55;;
48795;SDS011;34607;48.520;-1.330;2023-05-07T08:43:20;22.55;;;16.65;;
48795;SDS011;34607;48.520;-1.330;2023-05-07T08:45:49;22.42;;;18.23;;
48795;SDS011;34607;48.520;-1.330;2023-05-07T08:48:24;23.55;;;17.75;;
48795;SDS011;34607;48.520;-1.330;2023-05-07T08:50:58;25.15;;;19.15;;
48795;SDS011;34607;48.520;-1.330;2023-05-07T08:53:26;25.67;;;19.50;;
48795;SDS011;34607;48.520;-1.330;2023-05-07T08:55:53;27.35;;;20.90;;
48795;SDS011;34607;48.520;-1.330;2023-05-07T08:58:20;27.77;;;21.17;;
48795;SDS011;34607;48.520;-1.330;2023-05-07T09:00:48;26.10;;;21.05;;
48795;SDS011;34607;48.520;-1.330;2023-05-07T09:03:17;26.38;;;19.58;;
48795;SDS011;34607;48.520;-1.330;2023-05-07T09:05:49;26.20;;;20.10;;
48795;SDS011;34607;48.520;-1.330;2023-05-07T09:08:17;25.40;;;19.45;;
48795;SDS011;34607;48.520;-1.330;2023-05-07T09:10:46;27.75;;;20.77;;
48795;SDS011;34607;48.520;-1.330;2023-05-07T09:13:15;28.73;;;22.65;;
48795;SDS011;34607;48.520;-1.330;2023-05-07T09:15:43;39.05;;;30.35;;
48795;SDS011;34607;48.520;-1.330;2023-05-07T09:18:11;41.25;;;31.73;;
48795;SDS011;34607;48.520;-1.330;2023-05-07T09:20:40;40.60;;;30.13;;
48795;SDS011;34607;48.520;-1.330;2023-05-07T09:23:09;36.85;;;25.80;;
48795;SDS011;34607;48.520;-1.330;2023-05-07T09:25:37;24.13;;;18.80;;
48795;SDS011;34607;48.520;-1.330;2023-05-07T09:28:11;23.60;;;18.23;;
48795;SDS011;34607;48.520;-1.330;2023-05-07T09:30:38;21.42;;;17.27;;
48795;SDS011;34607;48.520;-1.330;2023-05-07T09:33:08;20.77;;;16.23;;
48795;SDS011;34607;48.520;-1.330;2023-05-07T09:35:39;17.52;;;11.70;;
48795;SDS011;34607;48.520;-1.330;2023-05-07T09:38:13;14.27;;;10.13;;
48795;SDS011;34607;48.520;-1.330;2023-05-07T09:40:40;14.68;;;10.43;;
48795;SDS011;34607;48.520;-1.330;2023-05-07T09:43:13;22.48;;;14.13;;
48795;SDS011;34607;48.520;-1.330;2023-05-07T09:45:55;21.60;;;14.18;;
48795;SDS011;34607;48.520;-1.330;2023-05-07T09:48:25;19.50;;;12.43;;
48795;SDS011;34607;48.520;-1.330;2023-05-07T09:50:55;13.82;;;11.75;;
48795;SDS011;34607;48.520;-1.330;2023-05-07T09:53:28;14.25;;;11.63;;
48795;SDS011;34607;48.520;-1.330;2023-05-07T09:55:57;13.63;;;11.68;;
48795;SDS011;34607;48.520;-1.330;2023-05-07T09:58:25;16.73;;;12.13;;
48795;SDS011;34607;48.520;-1.330;2023-05-07T10:00:54;16.15;;;11.40;;
48795;SDS011;34607;48.520;-1.330;2023-05-07T10:03:24;14.88;;;11.38;;
48795;SDS011;34607;48.520;-1.330;2023-05-07T10:06:00;16.92;;;12.48;;
48795;SDS011;34607;48.520;-1.330;2023-05-07T10:08:29;15.40;;;12.02;;
48795;SDS011;34607;48.520;-1.330;2023-05-07T10:10:59;15.13;;;11.98;;
48795;SDS011;34607;48.520;-1.330;2023-05-07T10:13:28;14.38;;;12.05;;
48795;SDS011;34607;48.520;-1.330;2023-05-07T10:15:58;17.55;;;13.30;;
48795;SDS011;34607;48.520;-1.330;2023-05-07T10:18:32;21.50;;;12.93;;
48795;SDS011;34607;48.520;-1.330;2023-05-07T10:23:36;14.85;;;10.63;;
48795;SDS011;34607;48.520;-1.330;2023-05-07T10:26:07;14.55;;;10.18;;
48795;SDS011;34607;48.520;-1.330;2023-05-07T10:28:37;12.05;;;8.73;;
48795;SDS011;34607;48.520;-1.330;2023-05-07T10:31:23;13.75;;;9.52;;
48795;SDS011;34607;48.520;-1.330;2023-05-07T10:34:07;13.63;;;9.13;;
48795;SDS011;34607;48.520;-1.330;2023-05-07T10:36:36;13.50;;;8.63;;
48795;SDS011;34607;48.520;-1.330;2023-05-07T10:39:06;12.27;;;9.68;;
48795;SDS011;34607;48.520;-1.330;2023-05-07T10:41:34;15.95;;;8.48;;
48795;SDS011;34607;48.520;-1.330;2023-05-07T10:44:02;11.23;;;8.50;;
48795;SDS011;34607;48.520;-1.330;2023-05-07T10:46:32;13.05;;;8.93;;
48795;SDS011;34607;48.520;-1.330;2023-05-07T10:49:15;11.77;;;8.10;;
48795;SDS011;34607;48.520;-1.330;2023-05-07T10:51:47;13.07;;;8.43;;
48795;SDS011;34607;48.520;-1.330;2023-05-07T10:54:45;10.75;;;7.90;;
48795;SDS011;34607;48.520;-1.330;2023-05-07T10:57:33;11.32;;;6.82;;
48795;SDS011;34607;48.520;-1.330;2023-05-07T11:03:11;10.20;;;7.78;;
48795;SDS011;34607;48.520;-1.330;2023-05-07T11:05:52;14.10;;;8.27;;
48795;SDS011;34607;48.520;-1.330;2023-05-07T11:08:53;11.30;;;7.53;;
48795;SDS011;34607;48.520;-1.330;2023-05-07T11:17:27;11.68;;;7.18;;
48795;SDS011;34607;48.520;-1.330;2023-05-07T11:20:02;14.85;;;7.30;;
48795;SDS011;34607;48.520;-1.330;2023-05-07T11:22:50;13.80;;;8.35;;
48795;SDS011;34607;48.520;-1.330;2023-05-07T11:25:32;11.98;;;6.50;;
48795;SDS011;34607;48.520;-1.330;2023-05-07T11:28:06;12.00;;;7.30;;
48795;SDS011;34607;48.520;-1.330;2023-05-07T11:30:38;9.57;;;4.93;;
48795;SDS011;34607;48.520;-1.330;2023-05-07T11:33:11;9.80;;;5.38;;
48795;SDS011;34607;48.520;-1.330;2023-05-07T11:35:39;11.68;;;5.55;;
48795;SDS011;34607;48.520;-1.330;2023-05-07T11:38:11;10.93;;;6.35;;
48795;SDS011;34607;48.520;-1.330;2023-05-07T11:40:49;10.23;;;5.60;;
48795;SDS011;34607;48.520;-1.330;2023-05-07T11:43:17;7.53;;;4.20;;
48795;SDS011;34607;48.520;-1.330;2023-05-07T11:45:44;9.27;;;5.55;;
48795;SDS011;34607;48.520;-1.330;2023-05-07T11:48:12;10.05;;;5.10;;
48795;SDS011;34607;48.520;-1.330;2023-05-07T11:50:49;10.52;;;5.53;;
48795;SDS011;34607;48.520;-1.330;2023-05-07T11:53:18;10.27;;;5.32;;
48795;SDS011;34607;48.520;-1.330;2023-05-07T11:55:45;6.05;;;4.35;;
48795;SDS011;34607;48.520;-1.330;2023-05-07T11:58:18;9.15;;;5.07;;
48795;SDS011;34607;48.520;-1.330;2023-05-07T12:00:48;11.20;;;6.18;;
48795;SDS011;34607;48.520;-1.330;2023-05-07T12:03:15;5.72;;;4.20;;
48795;SDS011;34607;48.520;-1.330;2023-05-07T12:05:43;8.80;;;4.43;;
48795;SDS011;34607;48.520;-1.330;2023-05-07T12:08:13;11.70;;;5.97;;
48795;SDS011;34607;48.520;-1.330;2023-05-07T12:10:41;9.05;;;4.95;;
48795;SDS011;34607;48.520;-1.330;2023-05-07T12:13:15;7.40;;;4.10;;
48795;SDS011;34607;48.520;-1.330;2023-05-07T12:15:42;8.70;;;4.82;;
48795;SDS011;34607;48.520;-1.330;2023-05-07T12:18:09;7.03;;;3.80;;
48795;SDS011;34607;48.520;-1.330;2023-05-07T12:20:38;8.85;;;4.95;;
48795;SDS011;34607;48.520;-1.330;2023-05-07T12:23:05;9.07;;;4.00;;
48795;SDS011;34607;48.520;-1.330;2023-05-07T12:25:34;9.15;;;4.38;;
48795;SDS011;34607;48.520;-1.330;2023-05-07T12:28:01;9.90;;;4.72;;
48795;SDS011;34607;48.520;-1.330;2023-05-07T12:30:31;10.05;;;5.03;;
48795;SDS011;34607;48.520;-1.330;2023-05-07T12:32:59;12.00;;;5.72;;
48795;SDS011;34607;48.520;-1.330;2023-05-07T12:35:26;10.13;;;5.55;;
48795;SDS011;34607;48.520;-1.330;2023-05-07T12:37:57;6.20;;;4.72;;
48795;SDS011;34607;48.520;-1.330;2023-05-07T12:40:34;13.27;;;5.57;;
48795;SDS011;34607;48.520;-1.330;2023-05-07T12:43:02;10.63;;;6.63;;
48795;SDS011;34607;48.520;-1.330;2023-05-07T12:45:29;7.40;;;5.28;;
48795;SDS011;34607;48.520;-1.330;2023-05-07T12:48:00;6.55;;;4.63;;
48795;SDS011;34607;48.520;-1.330;2023-05-07T12:50:30;9.80;;;4.65;;
48795;SDS011;34607;48.520;-1.330;2023-05-07T12:52:58;8.95;;;4.40;;
48795;SDS011;34607;48.520;-1.330;2023-05-07T12:55:25;6.63;;;4.20;;
48795;SDS011;34607;48.520;-1.330;2023-05-07T12:57:53;9.65;;;4.82;;
48795;SDS011;34607;48.520;-1.330;2023-05-07T13:00:32;7.03;;;4.38;;
48795;SDS011;34607;48.520;-1.330;2023-05-07T13:03:01;7.18;;;3.95;;
48795;SDS011;34607;48.520;-1.330;2023-05-07T13:05:28;7.57;;;3.63;;
48795;SDS011;34607;48.520;-1.330;2023-05-07T13:07:55;9.68;;;4.07;;
48795;SDS011;34607;48.520;-1.330;2023-05-07T13:10:23;8.10;;;3.67;;
48795;SDS011;34607;48.520;-1.330;2023-05-07T13:12:51;7.80;;;2.95;;
48795;SDS011;34607;48.520;-1.330;2023-05-07T13:15:18;6.43;;;3.65;;
48795;SDS011;34607;48.520;-1.330;2023-05-07T13:17:45;21.17;;;4.05;;
48795;SDS011;34607;48.520;-1.330;2023-05-07T13:20:13;8.23;;;3.97;;
48795;SDS011;34607;48.520;-1.330;2023-05-07T13:22:40;9.38;;;3.70;;
48795;SDS011;34607;48.520;-1.330;2023-05-07T13:25:08;8.52;;;3.40;;
48795;SDS011;34607;48.520;-1.330;2023-05-07T13:27:35;12.10;;;3.78;;
48795;SDS011;34607;48.520;-1.330;2023-05-07T13:30:03;10.05;;;3.95;;
48795;SDS011;34607;48.520;-1.330;2023-05-07T13:32:31;10.85;;;4.05;;
48795;SDS011;34607;48.520;-1.330;2023-05-07T13:34:58;8.38;;;3.95;;
48795;SDS011;34607;48.520;-1.330;2023-05-07T13:37:27;10.80;;;4.05;;
48795;SDS011;34607;48.520;-1.330;2023-05-07T13:39:54;15.30;;;3.40;;
48795;SDS011;34607;48.520;-1.330;2023-05-07T13:42:21;7.00;;;2.90;;
48795;SDS011;34607;48.520;-1.330;2023-05-07T13:44:48;7.90;;;2.80;;
48795;SDS011;34607;48.520;-1.330;2023-05-07T13:47:15;9.32;;;3.40;;
48795;SDS011;34607;48.520;-1.330;2023-05-07T13:49:42;5.28;;;2.58;;
48795;SDS011;34607;48.520;-1.330;2023-05-07T13:52:09;5.15;;;3.03;;
48795;SDS011;34607;48.520;-1.330;2023-05-07T13:54:38;8.75;;;4.10;;
48795;SDS011;34607;48.520;-1.330;2023-05-07T13:57:05;7.18;;;2.83;;
48795;SDS011;34607;48.520;-1.330;2023-05-07T13:59:32;5.05;;;2.83;;
48795;SDS011;34607;48.520;-1.330;2023-05-07T14:01:59;5.30;;;2.83;;
48795;SDS011;34607;48.520;-1.330;2023-05-07T14:04:26;5.45;;;2.95;;
48795;SDS011;34607;48.520;-1.330;2023-05-07T14:06:53;9.48;;;3.45;;
48795;SDS011;34607;48.520;-1.330;2023-05-07T14:09:21;7.13;;;2.30;;
48795;SDS011;34607;48.520;-1.330;2023-05-07T14:11:49;5.35;;;2.15;;
48795;SDS011;34607;48.520;-1.330;2023-05-07T14:14:16;3.60;;;2.00;;
48795;SDS011;34607;48.520;-1.330;2023-05-07T14:16:44;13.73;;;4.88;;
48795;SDS011;34607;48.520;-1.330;2023-05-07T14:19:11;7.18;;;2.58;;
48795;SDS011;34607;48.520;-1.330;2023-05-07T14:21:38;5.97;;;2.75;;
48795;SDS011;34607;48.520;-1.330;2023-05-07T14:24:06;5.93;;;2.08;;
48795;SDS011;34607;48.520;-1.330;2023-05-07T14:26:33;5.47;;;1.90;;
48795;SDS011;34607;48.520;-1.330;2023-05-07T14:29:02;6.20;;;1.80;;
48795;SDS011;34607;48.520;-1.330;2023-05-07T14:31:29;5.63;;;2.38;;
48795;SDS011;34607;48.520;-1.330;2023-05-07T14:33:56;5.18;;;1.80;;
48795;SDS011;34607;48.520;-1.330;2023-05-07T14:36:24;6.97;;;2.10;;
48795;SDS011;34607;48.520;-1.330;2023-05-07T14:38:52;5.07;;;2.03;;
48795;SDS011;34607;48.520;-1.330;2023-05-07T14:41:19;7.93;;;2.30;;
48795;SDS011;34607;48.520;-1.330;2023-05-07T14:43:47;4.50;;;2.28;;
48795;SDS011;34607;48.520;-1.330;2023-05-07T14:46:17;4.35;;;2.17;;
48795;SDS011;34607;48.520;-1.330;2023-05-07T14:48:45;6.47;;;2.17;;
48795;SDS011;34607;48.520;-1.330;2023-05-07T14:51:12;4.72;;;2.10;;
48795;SDS011;34607;48.520;-1.330;2023-05-07T14:53:40;18.23;;;5.63;;
48795;SDS011;34607;48.520;-1.330;2023-05-07T14:56:08;5.95;;;2.00;;
48795;SDS011;34607;48.520;-1.330;2023-05-07T14:58:35;6.80;;;2.35;;
48795;SDS011;34607;48.520;-1.330;2023-05-07T15:01:03;8.05;;;2.83;;
48795;SDS011;34607;48.520;-1.330;2023-05-07T15:03:31;5.88;;;2.45;;
48795;SDS011;34607;48.520;-1.330;2023-05-07T15:05:58;4.25;;;2.17;;
48795;SDS011;34607;48.520;-1.330;2023-05-07T15:08:26;4.78;;;2.38;;
48795;SDS011;34607;48.520;-1.330;2023-05-07T15:10:53;5.20;;;1.90;;
48795;SDS011;34607;48.520;-1.330;2023-05-07T15:13:20;6.28;;;1.90;;
48795;SDS011;34607;48.520;-1.330;2023-05-07T15:15:47;7.13;;;2.53;;
48795;SDS011;34607;48.520;-1.330;2023-05-07T15:18:15;7.47;;;2.60;;
48795;SDS011;34607;48.520;-1.330;2023-05-07T15:20:43;5.30;;;2.33;;
48795;SDS011;34607;48.520;-1.330;2023-05-07T15:23:11;6.95;;;2.30;;
48795;SDS011;34607;48.520;-1.330;2023-05-07T15:25:41;7.07;;;2.22;;
48795;SDS011;34607;48.520;-1.330;2023-05-07T15:28:08;4.93;;;1.63;;
48795;SDS011;34607;48.520;-1.330;2023-05-07T15:30:35;4.18;;;2.00;;
48795;SDS011;34607;48.520;-1.330;2023-05-07T15:33:02;8.07;;;2.10;;
48795;SDS011;34607;48.520;-1.330;2023-05-07T15:35:30;10.35;;;2.70;;
48795;SDS011;34607;48.520;-1.330;2023-05-07T15:37:58;8.77;;;2.90;;
48795;SDS011;34607;48.520;-1.330;2023-05-07T15:40:28;7.32;;;2.60;;
48795;SDS011;34607;48.520;-1.330;2023-05-07T15:42:56;6.43;;;2.88;;
48795;SDS011;34607;48.520;-1.330;2023-05-07T15:45:23;5.95;;;1.95;;
48795;SDS011;34607;48.520;-1.330;2023-05-07T15:47:50;7.90;;;2.47;;
48795;SDS011;34607;48.520;-1.330;2023-05-07T15:50:17;5.55;;;2.60;;
48795;SDS011;34607;48.520;-1.330;2023-05-07T15:52:44;11.27;;;3.15;;
48795;SDS011;34607;48.520;-1.330;2023-05-07T15:55:13;8.02;;;2.70;;
48795;SDS011;34607;48.520;-1.330;2023-05-07T15:57:40;6.40;;;2.72;;
48795;SDS011;34607;48.520;-1.330;2023-05-07T16:00:08;7.53;;;2.60;;
48795;SDS011;34607;48.520;-1.330;2023-05-07T16:02:39;8.18;;;2.95;;
48795;SDS011;34607;48.520;-1.330;2023-05-07T16:05:06;5.50;;;2.50;;
48795;SDS011;34607;48.520;-1.330;2023-05-07T16:07:35;7.15;;;2.50;;
48795;SDS011;34607;48.520;-1.330;2023-05-07T16:10:02;6.82;;;2.58;;
48795;SDS011;34607;48.520;-1.330;2023-05-07T16:12:31;7.72;;;3.85;;
48795;SDS011;34607;48.520;-1.330;2023-05-07T16:14:58;4.38;;;2.42;;
48795;SDS011;34607;48.520;-1.330;2023-05-07T16:17:26;7.53;;;2.95;;
48795;SDS011;34607;48.520;-1.330;2023-05-07T16:19:53;6.60;;;2.33;;
48795;SDS011;34607;48.520;-1.330;2023-05-07T16:22:20;8.45;;;2.67;;
48795;SDS011;34607;48.520;-1.330;2023-05-07T16:24:49;8.68;;;3.10;;
48795;SDS011;34607;48.520;-1.330;2023-05-07T16:27:16;6.65;;;3.08;;
48795;SDS011;34607;48.520;-1.330;2023-05-07T16:29:44;7.05;;;2.90;;
48795;SDS011;34607;48.520;-1.330;2023-05-07T16:32:11;6.03;;;2.53;;
48795;SDS011;34607;48.520;-1.330;2023-05-07T16:34:38;6.97;;;2.55;;
48795;SDS011;34607;48.520;-1.330;2023-05-07T16:37:05;7.43;;;2.88;;
48795;SDS011;34607;48.520;-1.330;2023-05-07T16:39:33;7.95;;;2.58;;
48795;SDS011;34607;48.520;-1.330;2023-05-07T16:42:00;6.30;;;2.47;;
48795;SDS011;34607;48.520;-1.330;2023-05-07T16:44:27;8.68;;;2.38;;
48795;SDS011;34607;48.520;-1.330;2023-05-07T16:46:55;7.22;;;2.80;;
48795;SDS011;34607;48.520;-1.330;2023-05-07T16:49:22;5.80;;;2.20;;
48795;SDS011;34607;48.520;-1.330;2023-05-07T16:51:49;9.32;;;2.65;;
48795;SDS011;34607;48.520;-1.330;2023-05-07T16:54:16;9.88;;;2.53;;
48795;SDS011;34607;48.520;-1.330;2023-05-07T16:56:43;6.72;;;2.20;;
48795;SDS011;34607;48.520;-1.330;2023-05-07T16:59:10;6.43;;;2.85;;
48795;SDS011;34607;48.520;-1.330;2023-05-07T17:01:37;7.00;;;2.60;;
48795;SDS011;34607;48.520;-1.330;2023-05-07T17:04:08;4.53;;;2.42;;
48795;SDS011;34607;48.520;-1.330;2023-05-07T17:06:35;14.68;;;3.53;;
48795;SDS011;34607;48.520;-1.330;2023-05-07T17:09:02;5.82;;;2.35;;
48795;SDS011;34607;48.520;-1.330;2023-05-07T17:11:29;5.82;;;2.20;;
48795;SDS011;34607;48.520;-1.330;2023-05-07T17:13:58;11.50;;;3.70;;
48795;SDS011;34607;48.520;-1.330;2023-05-07T17:16:25;3.30;;;1.98;;
48795;SDS011;34607;48.520;-1.330;2023-05-07T17:18:52;5.10;;;2.40;;
48795;SDS011;34607;48.520;-1.330;2023-05-07T17:21:20;3.90;;;1.83;;
48795;SDS011;34607;48.520;-1.330;2023-05-07T17:23:47;8.35;;;2.53;;
48795;SDS011;34607;48.520;-1.330;2023-05-07T17:26:14;7.90;;;2.88;;
48795;SDS011;34607;48.520;-1.330;2023-05-07T17:28:42;10.27;;;2.60;;
48795;SDS011;34607;48.520;-1.330;2023-05-07T17:31:09;7.28;;;2.88;;
48795;SDS011;34607;48.520;-1.330;2023-05-07T17:33:36;6.25;;;2.75;;
48795;SDS011;34607;48.520;-1.330;2023-05-07T17:36:03;7.43;;;2.42;;
48795;SDS011;34607;48.520;-1.330;2023-05-07T17:38:34;5.65;;;2.47;;
48795;SDS011;34607;48.520;-1.330;2023-05-07T17:41:01;7.05;;;2.13;;
48795;SDS011;34607;48.520;-1.330;2023-05-07T17:43:28;3.42;;;1.80;;
48795;SDS011;34607;48.520;-1.330;2023-05-07T17:45:55;7.70;;;2.42;;
48795;SDS011;34607;48.520;-1.330;2023-05-07T17:48:22;6.53;;;2.75;;
48795;SDS011;34607;48.520;-1.330;2023-05-07T17:50:49;4.97;;;2.33;;
48795;SDS011;34607;48.520;-1.330;2023-05-07T17:53:16;6.32;;;2.38;;
48795;SDS011;34607;48.520;-1.330;2023-05-07T17:55:45;5.30;;;2.30;;
48795;SDS011;34607;48.520;-1.330;2023-05-07T17:58:12;6.80;;;2.40;;
48795;SDS011;34607;48.520;-1.330;2023-05-07T18:00:39;8.30;;;2.55;;
48795;SDS011;34607;48.520;-1.330;2023-05-07T18:03:06;11.13;;;3.55;;
48795;SDS011;34607;48.520;-1.330;2023-05-07T18:05:34;10.52;;;2.67;;
48795;SDS011;34607;48.520;-1.330;2023-05-07T18:08:02;5.93;;;2.20;;
48795;SDS011;34607;48.520;-1.330;2023-05-07T18:10:29;6.85;;;2.85;;
48795;SDS011;34607;48.520;-1.330;2023-05-07T18:12:58;11.13;;;2.92;;
48795;SDS011;34607;48.520;-1.330;2023-05-07T18:15:25;5.20;;;2.90;;
48795;SDS011;34607;48.520;-1.330;2023-05-07T18:17:52;8.20;;;3.08;;
48795;SDS011;34607;48.520;-1.330;2023-05-07T18:20:19;9.93;;;2.83;;
48795;SDS011;34607;48.520;-1.330;2023-05-07T18:22:46;4.72;;;2.30;;
48795;SDS011;34607;48.520;-1.330;2023-05-07T18:25:13;8.20;;;2.80;;
48795;SDS011;34607;48.520;-1.330;2023-05-07T18:27:40;6.57;;;3.03;;
48795;SDS011;34607;48.520;-1.330;2023-05-07T18:30:09;5.43;;;2.45;;
48795;SDS011;34607;48.520;-1.330;2023-05-07T18:32:37;8.32;;;3.17;;
48795;SDS011;34607;48.520;-1.330;2023-05-07T18:35:04;8.93;;;2.97;;
48795;SDS011;34607;48.520;-1.330;2023-05-07T18:37:32;9.68;;;2.90;;
48795;SDS011;34607;48.520;-1.330;2023-05-07T18:39:59;7.00;;;2.47;;
48795;SDS011;34607;48.520;-1.330;2023-05-07T18:42:28;4.45;;;2.80;;
48795;SDS011;34607;48.520;-1.330;2023-05-07T18:44:55;7.85;;;2.80;;
48795;SDS011;34607;48.520;-1.330;2023-05-07T18:47:24;6.72;;;2.60;;
48795;SDS011;34607;48.520;-1.330;2023-05-07T18:49:52;9.07;;;2.75;;
48795;SDS011;34607;48.520;-1.330;2023-05-07T18:52:19;5.18;;;2.33;;
48795;SDS011;34607;48.520;-1.330;2023-05-07T18:54:46;4.40;;;2.47;;
48795;SDS011;34607;48.520;-1.330;2023-05-07T18:57:13;7.07;;;2.22;;
48795;SDS011;34607;48.520;-1.330;2023-05-07T18:59:41;7.10;;;2.72;;
48795;SDS011;34607;48.520;-1.330;2023-05-07T19:02:08;6.43;;;2.40;;
48795;SDS011;34607;48.520;-1.330;2023-05-07T19:04:37;3.35;;;2.50;;
48795;SDS011;34607;48.520;-1.330;2023-05-07T19:07:04;12.65;;;3.08;;
48795;SDS011;34607;48.520;-1.330;2023-05-07T19:09:31;7.30;;;2.88;;
48795;SDS011;34607;48.520;-1.330;2023-05-07T19:11:58;8.73;;;3.28;;
48795;SDS011;34607;48.520;-1.330;2023-05-07T19:14:26;5.97;;;2.92;;
48795;SDS011;34607;48.520;-1.330;2023-05-07T19:16:53;6.28;;;2.95;;
48795;SDS011;34607;48.520;-1.330;2023-05-07T19:19:20;6.05;;;2.97;;
48795;SDS011;34607;48.520;-1.330;2023-05-07T19:21:49;8.10;;;3.13;;
48795;SDS011;34607;48.520;-1.330;2023-05-07T19:24:16;9.70;;;3.20;;
48795;SDS011;34607;48.520;-1.330;2023-05-07T19:26:43;7.70;;;3.72;;
48795;SDS011;34607;48.520;-1.330;2023-05-07T19:29:10;5.35;;;2.95;;
48795;SDS011;34607;48.520;-1.330;2023-05-07T19:31:37;8.10;;;2.88;;
48795;SDS011;34607;48.520;-1.330;2023-05-07T19:34:04;9.40;;;3.03;;
48795;SDS011;34607;48.520;-1.330;2023-05-07T19:36:31;6.97;;;3.45;;
48795;SDS011;34607;48.520;-1.330;2023-05-07T19:39:00;9.20;;;3.40;;
48795;SDS011;34607;48.520;-1.330;2023-05-07T19:41:27;9.40;;;3.03;;
48795;SDS011;34607;48.520;-1.330;2023-05-07T19:43:54;8.65;;;3.83;;
48795;SDS011;34607;48.520;-1.330;2023-05-07T19:46:21;4.10;;;2.63;;
48795;SDS011;34607;48.520;-1.330;2023-05-07T19:48:48;5.93;;;2.80;;
48795;SDS011;34607;48.520;-1.330;2023-05-07T19:51:15;7.90;;;2.95;;
48795;SDS011;34607;48.520;-1.330;2023-05-07T19:53:42;7.43;;;3.30;;
48795;SDS011;34607;48.520;-1.330;2023-05-07T19:56:11;10.77;;;3.47;;
48795;SDS011;34607;48.520;-1.330;2023-05-07T19:58:39;6.07;;;3.00;;
48795;SDS011;34607;48.520;-1.330;2023-05-07T20:01:06;6.55;;;3.17;;
48795;SDS011;34607;48.520;-1.330;2023-05-07T20:03:33;11.25;;;4.10;;
48795;SDS011;34607;48.520;-1.330;2023-05-07T20:06:00;7.68;;;3.17;;
48795;SDS011;34607;48.520;-1.330;2023-05-07T20:08:27;7.20;;;3.13;;
48795;SDS011;34607;48.520;-1.330;2023-05-07T20:10:56;7.93;;;3.55;;
48795;SDS011;34607;48.520;-1.330;2023-05-07T20:13:25;13.02;;;3.55;;
48795;SDS011;34607;48.520;-1.330;2023-05-07T20:15:55;6.55;;;3.50;;
48795;SDS011;34607;48.520;-1.330;2023-05-07T20:18:23;10.43;;;4.03;;
48795;SDS011;34607;48.520;-1.330;2023-05-07T20:20:51;8.23;;;3.45;;
48795;SDS011;34607;48.520;-1.330;2023-05-07T20:23:18;7.18;;;3.67;;
48795;SDS011;34607;48.520;-1.330;2023-05-07T20:25:45;8.20;;;4.55;;
48795;SDS011;34607;48.520;-1.330;2023-05-07T20:28:13;7.47;;;3.45;;
48795;SDS011;34607;48.520;-1.330;2023-05-07T20:30:41;7.20;;;4.30;;
48795;SDS011;34607;48.520;-1.330;2023-05-07T20:33:08;6.78;;;4.13;;
48795;SDS011;34607;48.520;-1.330;2023-05-07T20:35:35;7.93;;;4.78;;
48795;SDS011;34607;48.520;-1.330;2023-05-07T20:38:02;7.03;;;4.07;;
48795;SDS011;34607;48.520;-1.330;2023-05-07T20:40:30;9.07;;;4.57;;
48795;SDS011;34607;48.520;-1.330;2023-05-07T20:42:58;10.52;;;4.30;;
48795;SDS011;34607;48.520;-1.330;2023-05-07T20:45:26;7.82;;;3.80;;
48795;SDS011;34607;48.520;-1.330;2023-05-07T20:47:54;10.38;;;4.05;;
48795;SDS011;34607;48.520;-1.330;2023-05-07T20:50:21;8.38;;;3.72;;
48795;SDS011;34607;48.520;-1.330;2023-05-07T20:52:49;9.85;;;4.28;;
48795;SDS011;34607;48.520;-1.330;2023-05-07T20:55:16;6.70;;;3.90;;
48795;SDS011;34607;48.520;-1.330;2023-05-07T20:57:43;7.38;;;3.83;;
48795;SDS011;34607;48.520;-1.330;2023-05-07T21:00:11;10.18;;;4.60;;
48795;SDS011;34607;48.520;-1.330;2023-05-07T21:02:38;8.88;;;4.47;;
48795;SDS011;34607;48.520;-1.330;2023-05-07T21:05:07;8.20;;;3.78;;
48795;SDS011;34607;48.520;-1.330;2023-05-07T21:07:34;5.88;;;3.70;;
48795;SDS011;34607;48.520;-1.330;2023-05-07T21:10:01;9.38;;;4.82;;
48795;SDS011;34607;48.520;-1.330;2023-05-07T21:12:28;9.07;;;4.40;;
48795;SDS011;34607;48.520;-1.330;2023-05-07T21:14:55;9.32;;;4.50;;
48795;SDS011;34607;48.520;-1.330;2023-05-07T21:17:22;11.00;;;5.03;;
48795;SDS011;34607;48.520;-1.330;2023-05-07T21:19:50;8.23;;;4.57;;
48795;SDS011;34607;48.520;-1.330;2023-05-07T21:22:18;8.52;;;4.50;;
48795;SDS011;34607;48.520;-1.330;2023-05-07T21:24:45;10.20;;;4.47;;
48795;SDS011;34607;48.520;-1.330;2023-05-07T21:27:13;7.35;;;4.15;;
48795;SDS011;34607;48.520;-1.330;2023-05-07T21:29:40;12.25;;;5.13;;
48795;SDS011;34607;48.520;-1.330;2023-05-07T21:32:07;7.72;;;4.68;;
48795;SDS011;34607;48.520;-1.330;2023-05-07T21:34:34;12.18;;;5.10;;
48795;SDS011;34607;48.520;-1.330;2023-05-07T21:37:01;10.05;;;4.82;;
48795;SDS011;34607;48.520;-1.330;2023-05-07T21:39:30;6.88;;;4.90;;
48795;SDS011;34607;48.520;-1.330;2023-05-07T21:41:57;8.55;;;4.65;;
48795;SDS011;34607;48.520;-1.330;2023-05-07T21:44:24;8.38;;;4.18;;
48795;SDS011;34607;48.520;-1.330;2023-05-07T21:46:53;9.93;;;5.70;;
48795;SDS011;34607;48.520;-1.330;2023-05-07T21:49:20;11.48;;;5.45;;
48795;SDS011;34607;48.520;-1.330;2023-05-07T21:51:47;16.63;;;5.35;;
